Current Weather

San Diego Intl

San Diego, California (KSAN)

Report from: Monday, June 17, 2024 3:51 AM PDT
Current time: Monday, June 17, 2024 4:17 AM PDT

Nearby weather – Weather history – Daily summaries
Weather forecast

Temperature16.1°C (61.0°F)
Dew point12.8°C (55.0°F)
Winds 9 kts (4.6 m/s, 10.4 mph) South (170°)
Visibility9 mi. (14.5 km)
Clouds Ceiling: Overcast 1,300 ft. (396 m)
Altimeter29.74 in.Hg (1007 mB)
Relative humidity81 %
Density altitude541 ft. (165 m)
Sea-level pressure100.7 kPa (1007 mB, 29.74 in.Hg)
Remarks System requires maintenance
Automated weather observing station with precipitation discriminator
Flight conditions Marginal Visual Meteorological Conditions
Raw dataKSAN 171051Z 17009KT 9SM OVC013 16/13 A2974 RMK AO2 SLP072 T01610128 $
An error has occurred. This application may no longer respond until reloaded. Reload 🗙